sensor_id;sensor_type;location;lat;lon;timestamp;temperature;humidity
17607;DHT22;8922;52.240;20.980;2022-12-07T00:01:32;2.60;99.90
17607;DHT22;8922;52.240;20.980;2022-12-07T00:04:01;2.60;99.90
17607;DHT22;8922;52.240;20.980;2022-12-07T00:06:31;2.60;99.90
17607;DHT22;8922;52.240;20.980;2022-12-07T00:09:01;2.60;99.90
17607;DHT22;8922;52.240;20.980;2022-12-07T00:11:28;2.60;99.90
17607;DHT22;8922;52.240;20.980;2022-12-07T00:13:57;2.60;99.90
17607;DHT22;8922;52.240;20.980;2022-12-07T00:16:28;2.60;99.90
17607;DHT22;8922;52.240;20.980;2022-12-07T00:18:55;2.60;99.90
17607;DHT22;8922;52.240;20.980;2022-12-07T00:21:24;2.70;99.90
17607;DHT22;8922;52.240;20.980;2022-12-07T00:23:53;2.70;99.90
17607;DHT22;8922;52.240;20.980;2022-12-07T00:26:23;2.70;99.90
17607;DHT22;8922;52.240;20.980;2022-12-07T00:28:52;2.70;99.90
17607;DHT22;8922;52.240;20.980;2022-12-07T00:31:22;2.70;99.90
17607;DHT22;8922;52.240;20.980;2022-12-07T00:33:50;2.70;99.90
17607;DHT22;8922;52.240;20.980;2022-12-07T00:36:22;2.80;99.90
17607;DHT22;8922;52.240;20.980;2022-12-07T00:38:50;2.80;99.90
17607;DHT22;8922;52.240;20.980;2022-12-07T00:41:20;2.80;99.90
17607;DHT22;8922;52.240;20.980;2022-12-07T00:43:48;2.80;99.90
17607;DHT22;8922;52.240;20.980;2022-12-07T00:46:16;2.80;99.90
17607;DHT22;8922;52.240;20.980;2022-12-07T00:48:45;2.90;99.90
17607;DHT22;8922;52.240;20.980;2022-12-07T00:51:13;2.90;99.90
17607;DHT22;8922;52.240;20.980;2022-12-07T00:53:41;2.90;99.90
17607;DHT22;8922;52.240;20.980;2022-12-07T00:56:11;2.90;99.90
17607;DHT22;8922;52.240;20.980;2022-12-07T00:58:38;2.90;99.90
17607;DHT22;8922;52.240;20.980;2022-12-07T01:01:07;2.90;99.90
17607;DHT22;8922;52.240;20.980;2022-12-07T01:03:35;2.90;99.90
17607;DHT22;8922;52.240;20.980;2022-12-07T01:06:04;3.00;99.90
17607;DHT22;8922;52.240;20.980;2022-12-07T01:08:31;3.00;99.90
17607;DHT22;8922;52.240;20.980;2022-12-07T01:10:59;3.00;99.90
17607;DHT22;8922;52.240;20.980;2022-12-07T01:13:26;3.00;99.90
17607;DHT22;8922;52.240;20.980;2022-12-07T01:15:56;3.00;99.90
17607;DHT22;8922;52.240;20.980;2022-12-07T01:18:25;3.00;99.90
17607;DHT22;8922;52.240;20.980;2022-12-07T01:20:59;3.00;99.90
17607;DHT22;8922;52.240;20.980;2022-12-07T01:23:29;3.10;99.90
17607;DHT22;8922;52.240;20.980;2022-12-07T01:25:58;3.10;99.90
17607;DHT22;8922;52.240;20.980;2022-12-07T01:28:26;3.20;99.90
17607;DHT22;8922;52.240;20.980;2022-12-07T01:30:57;3.10;99.90
17607;DHT22;8922;52.240;20.980;2022-12-07T01:33:26;3.10;99.90
17607;DHT22;8922;52.240;20.980;2022-12-07T01:35:53;3.10;99.90
17607;DHT22;8922;52.240;20.980;2022-12-07T01:38:20;3.20;99.90
17607;DHT22;8922;52.240;20.980;2022-12-07T01:40:55;3.20;99.90
17607;DHT22;8922;52.240;20.980;2022-12-07T01:43:23;3.20;99.90
17607;DHT22;8922;52.240;20.980;2022-12-07T01:45:50;3.20;99.90
17607;DHT22;8922;52.240;20.980;2022-12-07T01:48:20;3.30;99.90
17607;DHT22;8922;52.240;20.980;2022-12-07T01:50:50;3.30;99.90
17607;DHT22;8922;52.240;20.980;2022-12-07T01:53:19;3.30;99.90
17607;DHT22;8922;52.240;20.980;2022-12-07T01:55:48;3.30;99.90
17607;DHT22;8922;52.240;20.980;2022-12-07T01:58:20;3.30;99.90
17607;DHT22;8922;52.240;20.980;2022-12-07T02:00:48;3.30;99.90
17607;DHT22;8922;52.240;20.980;2022-12-07T02:03:18;3.30;99.90
17607;DHT22;8922;52.240;20.980;2022-12-07T02:05:46;3.30;99.90
17607;DHT22;8922;52.240;20.980;2022-12-07T02:08:14;3.30;99.90
17607;DHT22;8922;52.240;20.980;2022-12-07T02:10:41;3.30;99.90
17607;DHT22;8922;52.240;20.980;2022-12-07T02:13:11;3.30;99.90
17607;DHT22;8922;52.240;20.980;2022-12-07T02:18:40;3.30;99.90
17607;DHT22;8922;52.240;20.980;2022-12-07T02:21:12;3.30;99.90
17607;DHT22;8922;52.240;20.980;2022-12-07T02:29:59;3.30;99.90
17607;DHT22;8922;52.240;20.980;2022-12-07T02:32:36;3.40;99.90
17607;DHT22;8922;52.240;20.980;2022-12-07T02:35:10;3.40;99.90
17607;DHT22;8922;52.240;20.980;2022-12-07T02:37:42;3.40;99.90
17607;DHT22;8922;52.240;20.980;2022-12-07T02:40:14;3.40;99.90
17607;DHT22;8922;52.240;20.980;2022-12-07T02:42:47;3.30;99.90
17607;DHT22;8922;52.240;20.980;2022-12-07T02:45:20;3.30;99.90
17607;DHT22;8922;52.240;20.980;2022-12-07T02:47:51;3.30;99.90
17607;DHT22;8922;52.240;20.980;2022-12-07T02:50:20;3.30;99.90
17607;DHT22;8922;52.240;20.980;2022-12-07T02:52:47;3.30;99.90
17607;DHT22;8922;52.240;20.980;2022-12-07T02:55:17;3.30;99.90
17607;DHT22;8922;52.240;20.980;2022-12-07T02:57:55;3.30;99.90
17607;DHT22;8922;52.240;20.980;2022-12-07T03:00:35;3.20;99.90
17607;DHT22;8922;52.240;20.980;2022-12-07T03:03:10;3.20;99.90
17607;DHT22;8922;52.240;20.980;2022-12-07T03:08:40;3.20;99.90
17607;DHT22;8922;52.240;20.980;2022-12-07T03:11:11;3.20;99.90
17607;DHT22;8922;52.240;20.980;2022-12-07T03:13:46;3.20;99.90
17607;DHT22;8922;52.240;20.980;2022-12-07T03:16:17;3.10;99.90
17607;DHT22;8922;52.240;20.980;2022-12-07T03:18:47;3.10;99.90
17607;DHT22;8922;52.240;20.980;2022-12-07T03:21:18;3.10;99.90
17607;DHT22;8922;52.240;20.980;2022-12-07T03:23:50;3.10;99.90
17607;DHT22;8922;52.240;20.980;2022-12-07T03:26:19;3.10;99.90
17607;DHT22;8922;52.240;20.980;2022-12-07T03:28:51;3.00;99.90
17607;DHT22;8922;52.240;20.980;2022-12-07T03:31:23;3.00;99.90
17607;DHT22;8922;52.240;20.980;2022-12-07T03:33:58;3.00;99.90
17607;DHT22;8922;52.240;20.980;2022-12-07T03:36:31;2.90;99.90
17607;DHT22;8922;52.240;20.980;2022-12-07T03:39:03;2.90;99.90
17607;DHT22;8922;52.240;20.980;2022-12-07T03:41:34;2.90;99.90
17607;DHT22;8922;52.240;20.980;2022-12-07T03:44:02;2.90;99.90
17607;DHT22;8922;52.240;20.980;2022-12-07T03:46:37;2.90;99.90
17607;DHT22;8922;52.240;20.980;2022-12-07T03:49:11;2.90;99.90
17607;DHT22;8922;52.240;20.980;2022-12-07T03:51:43;2.90;99.90
17607;DHT22;8922;52.240;20.980;2022-12-07T03:54:17;2.90;99.90
17607;DHT22;8922;52.240;20.980;2022-12-07T03:56:46;2.90;99.90
17607;DHT22;8922;52.240;20.980;2022-12-07T03:59:14;2.90;99.90
17607;DHT22;8922;52.240;20.980;2022-12-07T04:01:44;2.90;99.90
17607;DHT22;8922;52.240;20.980;2022-12-07T04:04:11;2.80;99.90
17607;DHT22;8922;52.240;20.980;2022-12-07T04:06:38;2.90;99.90
17607;DHT22;8922;52.240;20.980;2022-12-07T04:09:05;2.80;99.90
17607;DHT22;8922;52.240;20.980;2022-12-07T04:11:32;2.80;99.90
17607;DHT22;8922;52.240;20.980;2022-12-07T04:13:59;2.80;99.90
17607;DHT22;8922;52.240;20.980;2022-12-07T04:17:14;2.70;99.90
17607;DHT22;8922;52.240;20.980;2022-12-07T04:19:41;2.70;99.90
17607;DHT22;8922;52.240;20.980;2022-12-07T04:22:08;2.70;99.90
17607;DHT22;8922;52.240;20.980;2022-12-07T04:24:35;2.70;99.90
17607;DHT22;8922;52.240;20.980;2022-12-07T04:27:02;2.70;99.90
17607;DHT22;8922;52.240;20.980;2022-12-07T04:29:29;2.70;99.90
17607;DHT22;8922;52.240;20.980;2022-12-07T04:31:56;2.60;99.90
17607;DHT22;8922;52.240;20.980;2022-12-07T04:34:24;2.60;99.90
17607;DHT22;8922;52.240;20.980;2022-12-07T04:36:52;2.60;99.90
17607;DHT22;8922;52.240;20.980;2022-12-07T04:39:21;2.60;99.90
17607;DHT22;8922;52.240;20.980;2022-12-07T04:41:49;2.60;99.90
17607;DHT22;8922;52.240;20.980;2022-12-07T04:44:17;2.60;99.90
17607;DHT22;8922;52.240;20.980;2022-12-07T04:46:44;2.70;99.90
17607;DHT22;8922;52.240;20.980;2022-12-07T04:49:12;2.70;99.90
17607;DHT22;8922;52.240;20.980;2022-12-07T04:51:41;2.60;99.90
17607;DHT22;8922;52.240;20.980;2022-12-07T04:54:08;2.60;99.90
17607;DHT22;8922;52.240;20.980;2022-12-07T04:56:35;2.60;99.90
17607;DHT22;8922;52.240;20.980;2022-12-07T04:59:02;2.60;99.90
17607;DHT22;8922;52.240;20.980;2022-12-07T05:01:30;2.60;99.90
17607;DHT22;8922;52.240;20.980;2022-12-07T05:03:57;2.50;99.90
17607;DHT22;8922;52.240;20.980;2022-12-07T05:06:24;2.50;99.90
17607;DHT22;8922;52.240;20.980;2022-12-07T05:08:52;2.50;99.90
17607;DHT22;8922;52.240;20.980;2022-12-07T05:11:19;2.50;99.90
17607;DHT22;8922;52.240;20.980;2022-12-07T05:14:06;2.50;99.90
17607;DHT22;8922;52.240;20.980;2022-12-07T05:16:34;2.50;99.90
17607;DHT22;8922;52.240;20.980;2022-12-07T05:19:02;2.50;99.90
17607;DHT22;8922;52.240;20.980;2022-12-07T05:21:30;2.50;99.90
17607;DHT22;8922;52.240;20.980;2022-12-07T05:23:59;2.50;99.90
17607;DHT22;8922;52.240;20.980;2022-12-07T05:26:29;2.40;99.90
17607;DHT22;8922;52.240;20.980;2022-12-07T05:28:56;2.40;99.90
17607;DHT22;8922;52.240;20.980;2022-12-07T05:31:26;2.40;99.90
17607;DHT22;8922;52.240;20.980;2022-12-07T05:33:54;2.40;99.90
17607;DHT22;8922;52.240;20.980;2022-12-07T05:36:23;2.40;99.90
17607;DHT22;8922;52.240;20.980;2022-12-07T05:38:50;2.40;99.90
17607;DHT22;8922;52.240;20.980;2022-12-07T05:41:19;2.40;99.90
17607;DHT22;8922;52.240;20.980;2022-12-07T05:44:04;2.30;99.90
17607;DHT22;8922;52.240;20.980;2022-12-07T05:46:31;2.40;99.90
17607;DHT22;8922;52.240;20.980;2022-12-07T05:48:58;2.30;99.90
17607;DHT22;8922;52.240;20.980;2022-12-07T05:51:25;2.30;99.90
17607;DHT22;8922;52.240;20.980;2022-12-07T05:53:52;2.40;99.90
17607;DHT22;8922;52.240;20.980;2022-12-07T05:56:20;2.30;99.90
17607;DHT22;8922;52.240;20.980;2022-12-07T05:58:47;2.30;99.90
17607;DHT22;8922;52.240;20.980;2022-12-07T06:01:31;2.30;99.90
17607;DHT22;8922;52.240;20.980;2022-12-07T06:03:58;2.30;99.90
17607;DHT22;8922;52.240;20.980;2022-12-07T06:06:25;2.30;99.90
17607;DHT22;8922;52.240;20.980;2022-12-07T06:08:52;2.30;99.90
17607;DHT22;8922;52.240;20.980;2022-12-07T06:11:20;2.20;99.90
17607;DHT22;8922;52.240;20.980;2022-12-07T06:14:06;2.30;99.90
17607;DHT22;8922;52.240;20.980;2022-12-07T06:16:33;2.30;99.90
17607;DHT22;8922;52.240;20.980;2022-12-07T06:19:00;2.20;99.90
17607;DHT22;8922;52.240;20.980;2022-12-07T06:21:27;2.20;99.90
17607;DHT22;8922;52.240;20.980;2022-12-07T06:23:54;2.20;99.90
17607;DHT22;8922;52.240;20.980;2022-12-07T06:26:22;2.20;99.90
17607;DHT22;8922;52.240;20.980;2022-12-07T06:28:49;2.20;99.90
17607;DHT22;8922;52.240;20.980;2022-12-07T06:31:16;2.20;99.90
17607;DHT22;8922;52.240;20.980;2022-12-07T06:33:43;2.20;99.90
17607;DHT22;8922;52.240;20.980;2022-12-07T06:36:10;2.20;99.90
17607;DHT22;8922;52.240;20.980;2022-12-07T06:38:37;2.20;99.90
17607;DHT22;8922;52.240;20.980;2022-12-07T06:41:04;2.20;99.90
17607;DHT22;8922;52.240;20.980;2022-12-07T06:43:33;2.10;99.90
17607;DHT22;8922;52.240;20.980;2022-12-07T06:46:00;2.10;99.90
17607;DHT22;8922;52.240;20.980;2022-12-07T06:48:27;2.10;99.90
17607;DHT22;8922;52.240;20.980;2022-12-07T06:50:54;2.20;99.90
17607;DHT22;8922;52.240;20.980;2022-12-07T06:53:21;2.10;99.90
17607;DHT22;8922;52.240;20.980;2022-12-07T06:55:48;2.10;99.90
17607;DHT22;8922;52.240;20.980;2022-12-07T06:58:15;2.10;99.90
17607;DHT22;8922;52.240;20.980;2022-12-07T07:00:43;2.10;99.90
17607;DHT22;8922;52.240;20.980;2022-12-07T07:03:10;2.10;99.90
17607;DHT22;8922;52.240;20.980;2022-12-07T07:05:37;2.10;99.90
17607;DHT22;8922;52.240;20.980;2022-12-07T07:08:04;2.10;99.90
17607;DHT22;8922;52.240;20.980;2022-12-07T07:10:31;2.10;99.90
17607;DHT22;8922;52.240;20.980;2022-12-07T07:12:58;2.10;99.90
17607;DHT22;8922;52.240;20.980;2022-12-07T07:15:25;2.10;99.90
17607;DHT22;8922;52.240;20.980;2022-12-07T07:17:53;2.10;99.90
17607;DHT22;8922;52.240;20.980;2022-12-07T07:20:20;2.10;99.90
17607;DHT22;8922;52.240;20.980;2022-12-07T07:22:47;2.10;99.90
17607;DHT22;8922;52.240;20.980;2022-12-07T07:25:14;2.10;99.90
17607;DHT22;8922;52.240;20.980;2022-12-07T07:27:42;2.10;99.90
17607;DHT22;8922;52.240;20.980;2022-12-07T07:30:09;2.10;99.90
17607;DHT22;8922;52.240;20.980;2022-12-07T07:32:36;2.10;99.90
17607;DHT22;8922;52.240;20.980;2022-12-07T07:35:05;2.10;99.90
17607;DHT22;8922;52.240;20.980;2022-12-07T07:37:32;2.10;99.90
17607;DHT22;8922;52.240;20.980;2022-12-07T07:39:59;2.20;99.90
17607;DHT22;8922;52.240;20.980;2022-12-07T07:42:26;2.10;99.90
17607;DHT22;8922;52.240;20.980;2022-12-07T07:44:53;2.20;99.90
17607;DHT22;8922;52.240;20.980;2022-12-07T07:47:19;2.20;99.90
17607;DHT22;8922;52.240;20.980;2022-12-07T07:49:46;2.10;99.90
17607;DHT22;8922;52.240;20.980;2022-12-07T07:52:14;2.10;99.90
17607;DHT22;8922;52.240;20.980;2022-12-07T07:54:41;2.10;99.90
17607;DHT22;8922;52.240;20.980;2022-12-07T07:57:08;2.20;99.90
17607;DHT22;8922;52.240;20.980;2022-12-07T07:59:35;2.20;99.90
17607;DHT22;8922;52.240;20.980;2022-12-07T08:02:02;2.20;99.90
17607;DHT22;8922;52.240;20.980;2022-12-07T08:04:28;2.20;99.90
17607;DHT22;8922;52.240;20.980;2022-12-07T08:06:56;2.20;99.90
17607;DHT22;8922;52.240;20.980;2022-12-07T08:09:25;2.20;99.90
17607;DHT22;8922;52.240;20.980;2022-12-07T08:11:52;2.20;99.90
17607;DHT22;8922;52.240;20.980;2022-12-07T08:14:19;2.20;99.90
17607;DHT22;8922;52.240;20.980;2022-12-07T08:16:45;2.30;99.90
17607;DHT22;8922;52.240;20.980;2022-12-07T08:19:12;2.30;99.90
17607;DHT22;8922;52.240;20.980;2022-12-07T08:21:39;2.30;99.90
17607;DHT22;8922;52.240;20.980;2022-12-07T08:24:06;2.30;99.90
17607;DHT22;8922;52.240;20.980;2022-12-07T08:26:34;2.40;99.90
17607;DHT22;8922;52.240;20.980;2022-12-07T08:29:01;2.40;99.90
17607;DHT22;8922;52.240;20.980;2022-12-07T08:31:28;2.40;99.90
17607;DHT22;8922;52.240;20.980;2022-12-07T08:33:56;2.40;99.90
17607;DHT22;8922;52.240;20.980;2022-12-07T08:36:22;2.40;99.90
17607;DHT22;8922;52.240;20.980;2022-12-07T08:38:49;2.40;99.90
17607;DHT22;8922;52.240;20.980;2022-12-07T08:41:17;2.50;99.90
17607;DHT22;8922;52.240;20.980;2022-12-07T08:43:45;2.50;99.90
17607;DHT22;8922;52.240;20.980;2022-12-07T08:46:15;2.50;99.90
17607;DHT22;8922;52.240;20.980;2022-12-07T08:48:45;2.50;99.90
17607;DHT22;8922;52.240;20.980;2022-12-07T08:51:13;2.50;99.90
17607;DHT22;8922;52.240;20.980;2022-12-07T08:53:41;2.50;99.90
17607;DHT22;8922;52.240;20.980;2022-12-07T08:56:09;2.50;99.90
17607;DHT22;8922;52.240;20.980;2022-12-07T08:58:37;2.60;99.90
17607;DHT22;8922;52.240;20.980;2022-12-07T09:01:06;2.60;99.90
17607;DHT22;8922;52.240;20.980;2022-12-07T09:03:33;2.70;99.90
17607;DHT22;8922;52.240;20.980;2022-12-07T09:06:00;2.70;99.90
17607;DHT22;8922;52.240;20.980;2022-12-07T09:08:29;2.80;99.90
17607;DHT22;8922;52.240;20.980;2022-12-07T09:10:57;2.90;99.90
17607;DHT22;8922;52.240;20.980;2022-12-07T09:13:25;2.90;99.90
17607;DHT22;8922;52.240;20.980;2022-12-07T09:15:52;3.00;99.90
17607;DHT22;8922;52.240;20.980;2022-12-07T09:18:21;3.00;99.90
17607;DHT22;8922;52.240;20.980;2022-12-07T09:20:48;3.10;99.90
17607;DHT22;8922;52.240;20.980;2022-12-07T09:23:14;3.10;99.90
17607;DHT22;8922;52.240;20.980;2022-12-07T09:25:42;3.10;99.90
17607;DHT22;8922;52.240;20.980;2022-12-07T09:28:09;3.20;99.90
17607;DHT22;8922;52.240;20.980;2022-12-07T09:30:36;3.20;99.90
17607;DHT22;8922;52.240;20.980;2022-12-07T09:33:03;3.20;99.90
17607;DHT22;8922;52.240;20.980;2022-12-07T09:35:31;3.20;99.90
17607;DHT22;8922;52.240;20.980;2022-12-07T09:37:58;3.30;99.90
17607;DHT22;8922;52.240;20.980;2022-12-07T09:40:25;3.30;99.90
17607;DHT22;8922;52.240;20.980;2022-12-07T09:42:53;3.30;99.90
17607;DHT22;8922;52.240;20.980;2022-12-07T09:45:33;3.40;99.90
17607;DHT22;8922;52.240;20.980;2022-12-07T09:48:01;3.40;99.90
17607;DHT22;8922;52.240;20.980;2022-12-07T09:50:30;3.40;99.90
17607;DHT22;8922;52.240;20.980;2022-12-07T09:53:08;3.40;99.90
17607;DHT22;8922;52.240;20.980;2022-12-07T09:55:36;3.50;99.90
17607;DHT22;8922;52.240;20.980;2022-12-07T09:58:04;3.50;99.90
17607;DHT22;8922;52.240;20.980;2022-12-07T10:00:31;3.60;99.90
17607;DHT22;8922;52.240;20.980;2022-12-07T10:02:59;3.50;99.90
17607;DHT22;8922;52.240;20.980;2022-12-07T10:05:28;3.60;99.90
17607;DHT22;8922;52.240;20.980;2022-12-07T10:07:58;3.60;99.90
17607;DHT22;8922;52.240;20.980;2022-12-07T10:10:28;3.60;99.90
17607;DHT22;8922;52.240;20.980;2022-12-07T10:12:58;3.70;99.90
17607;DHT22;8922;52.240;20.980;2022-12-07T10:15:41;3.70;99.90
17607;DHT22;8922;52.240;20.980;2022-12-07T10:18:28;3.70;99.90
17607;DHT22;8922;52.240;20.980;2022-12-07T10:21:13;3.70;99.90
17607;DHT22;8922;52.240;20.980;2022-12-07T10:23:59;3.80;99.90
17607;DHT22;8922;52.240;20.980;2022-12-07T10:26:30;3.70;99.90
17607;DHT22;8922;52.240;20.980;2022-12-07T10:28:59;3.70;99.90
17607;DHT22;8922;52.240;20.980;2022-12-07T10:31:27;3.70;99.90
17607;DHT22;8922;52.240;20.980;2022-12-07T10:33:56;3.70;99.90
17607;DHT22;8922;52.240;20.980;2022-12-07T10:36:25;3.70;99.90
17607;DHT22;8922;52.240;20.980;2022-12-07T10:39:00;3.70;99.90
17607;DHT22;8922;52.240;20.980;2022-12-07T10:41:27;3.70;99.90
17607;DHT22;8922;52.240;20.980;2022-12-07T10:43:56;3.70;99.90
17607;DHT22;8922;52.240;20.980;2022-12-07T10:46:46;3.70;99.90
17607;DHT22;8922;52.240;20.980;2022-12-07T10:52:28;3.80;99.90
17607;DHT22;8922;52.240;20.980;2022-12-07T10:55:13;3.80;99.90
17607;DHT22;8922;52.240;20.980;2022-12-07T10:57:51;3.80;99.90
17607;DHT22;8922;52.240;20.980;2022-12-07T11:00:23;3.80;99.90
17607;DHT22;8922;52.240;20.980;2022-12-07T11:03:20;3.80;99.90
17607;DHT22;8922;52.240;20.980;2022-12-07T11:05:54;3.90;99.90
17607;DHT22;8922;52.240;20.980;2022-12-07T11:08:39;3.80;99.90
17607;DHT22;8922;52.240;20.980;2022-12-07T11:11:14;3.90;99.90
17607;DHT22;8922;52.240;20.980;2022-12-07T11:13:48;3.90;99.90
17607;DHT22;8922;52.240;20.980;2022-12-07T11:16:24;3.80;99.90
17607;DHT22;8922;52.240;20.980;2022-12-07T11:19:06;3.90;99.90
17607;DHT22;8922;52.240;20.980;2022-12-07T11:21:45;3.90;99.90
17607;DHT22;8922;52.240;20.980;2022-12-07T11:24:16;3.90;99.90
17607;DHT22;8922;52.240;20.980;2022-12-07T11:26:59;3.90;99.90
17607;DHT22;8922;52.240;20.980;2022-12-07T11:29:45;3.90;99.90
17607;DHT22;8922;52.240;20.980;2022-12-07T11:32:17;3.90;99.90
17607;DHT22;8922;52.240;20.980;2022-12-07T11:34:56;3.90;99.90
17607;DHT22;8922;52.240;20.980;2022-12-07T11:37:30;3.90;99.90
17607;DHT22;8922;52.240;20.980;2022-12-07T11:40:00;3.80;99.90
17607;DHT22;8922;52.240;20.980;2022-12-07T11:42:33;3.90;99.90
17607;DHT22;8922;52.240;20.980;2022-12-07T11:45:13;3.90;99.90
17607;DHT22;8922;52.240;20.980;2022-12-07T11:47:47;3.90;99.90
17607;DHT22;8922;52.240;20.980;2022-12-07T11:50:24;4.00;99.90
17607;DHT22;8922;52.240;20.980;2022-12-07T11:52:54;4.00;99.90
17607;DHT22;8922;52.240;20.980;2022-12-07T11:55:29;4.00;99.90
17607;DHT22;8922;52.240;20.980;2022-12-07T11:58:18;4.00;99.90
17607;DHT22;8922;52.240;20.980;2022-12-07T12:00:49;4.10;99.90
17607;DHT22;8922;52.240;20.980;2022-12-07T12:03:24;4.20;99.90
17607;DHT22;8922;52.240;20.980;2022-12-07T12:05:55;4.20;99.90
17607;DHT22;8922;52.240;20.980;2022-12-07T12:08:28;4.20;99.90
17607;DHT22;8922;52.240;20.980;2022-12-07T12:11:02;4.20;99.90
17607;DHT22;8922;52.240;20.980;2022-12-07T12:14:04;4.20;99.90
17607;DHT22;8922;52.240;20.980;2022-12-07T12:17:03;4.10;99.90
17607;DHT22;8922;52.240;20.980;2022-12-07T12:19:35;4.10;99.90
17607;DHT22;8922;52.240;20.980;2022-12-07T12:22:10;4.00;99.90
17607;DHT22;8922;52.240;20.980;2022-12-07T12:24:40;4.00;99.90
17607;DHT22;8922;52.240;20.980;2022-12-07T12:27:15;3.90;99.90
17607;DHT22;8922;52.240;20.980;2022-12-07T12:29:45;3.80;99.90
17607;DHT22;8922;52.240;20.980;2022-12-07T12:32:21;3.80;99.90
17607;DHT22;8922;52.240;20.980;2022-12-07T12:35:03;3.80;99.90
17607;DHT22;8922;52.240;20.980;2022-12-07T12:37:46;3.80;99.90
17607;DHT22;8922;52.240;20.980;2022-12-07T12:40:43;3.80;99.90
17607;DHT22;8922;52.240;20.980;2022-12-07T12:43:45;3.80;99.90
17607;DHT22;8922;52.240;20.980;2022-12-07T12:46:44;3.80;99.90
17607;DHT22;8922;52.240;20.980;2022-12-07T12:49:38;3.70;99.90
17607;DHT22;8922;52.240;20.980;2022-12-07T12:58:32;3.70;99.90
17607;DHT22;8922;52.240;20.980;2022-12-07T13:04:47;3.70;99.90
17607;DHT22;8922;52.240;20.980;2022-12-07T13:10:35;3.60;99.90
17607;DHT22;8922;52.240;20.980;2022-12-07T13:13:08;3.60;99.90
17607;DHT22;8922;52.240;20.980;2022-12-07T13:15:52;3.60;99.90
17607;DHT22;8922;52.240;20.980;2022-12-07T13:18:24;3.60;99.90
17607;DHT22;8922;52.240;20.980;2022-12-07T13:20:55;3.60;99.90
17607;DHT22;8922;52.240;20.980;2022-12-07T13:23:29;3.60;99.90
17607;DHT22;8922;52.240;20.980;2022-12-07T13:26:08;3.60;99.90
17607;DHT22;8922;52.240;20.980;2022-12-07T13:28:38;3.50;99.90
17607;DHT22;8922;52.240;20.980;2022-12-07T13:31:18;3.50;99.90
17607;DHT22;8922;52.240;20.980;2022-12-07T13:33:47;3.60;99.90
17607;DHT22;8922;52.240;20.980;2022-12-07T13:36:23;3.60;99.90
17607;DHT22;8922;52.240;20.980;2022-12-07T13:38:54;3.60;99.90
17607;DHT22;8922;52.240;20.980;2022-12-07T13:41:22;3.50;99.90
17607;DHT22;8922;52.240;20.980;2022-12-07T13:43:53;3.60;99.90
17607;DHT22;8922;52.240;20.980;2022-12-07T13:46:28;3.50;99.90
17607;DHT22;8922;52.240;20.980;2022-12-07T13:48:56;3.50;99.90
17607;DHT22;8922;52.240;20.980;2022-12-07T13:51:26;3.40;99.90
17607;DHT22;8922;52.240;20.980;2022-12-07T13:53:55;3.40;99.90
17607;DHT22;8922;52.240;20.980;2022-12-07T13:56:26;3.40;99.90
17607;DHT22;8922;52.240;20.980;2022-12-07T13:58:55;3.40;99.90
17607;DHT22;8922;52.240;20.980;2022-12-07T14:01:22;3.40;99.90
17607;DHT22;8922;52.240;20.980;2022-12-07T14:03:49;3.30;99.90
17607;DHT22;8922;52.240;20.980;2022-12-07T14:06:26;3.30;99.90
17607;DHT22;8922;52.240;20.980;2022-12-07T14:09:07;3.30;99.90
17607;DHT22;8922;52.240;20.980;2022-12-07T14:11:34;3.30;99.90
17607;DHT22;8922;52.240;20.980;2022-12-07T14:14:02;3.30;99.90
17607;DHT22;8922;52.240;20.980;2022-12-07T14:16:31;3.30;99.90
17607;DHT22;8922;52.240;20.980;2022-12-07T14:18:59;3.30;99.90
17607;DHT22;8922;52.240;20.980;2022-12-07T14:21:29;3.30;99.90
17607;DHT22;8922;52.240;20.980;2022-12-07T14:24:09;3.20;99.90
17607;DHT22;8922;52.240;20.980;2022-12-07T14:26:37;3.20;99.90
17607;DHT22;8922;52.240;20.980;2022-12-07T14:29:31;3.20;99.90
17607;DHT22;8922;52.240;20.980;2022-12-07T14:32:18;3.20;99.90
17607;DHT22;8922;52.240;20.980;2022-12-07T14:34:54;3.10;99.90
17607;DHT22;8922;52.240;20.980;2022-12-07T14:37:22;3.10;99.90
17607;DHT22;8922;52.240;20.980;2022-12-07T14:39:49;3.10;99.90
17607;DHT22;8922;52.240;20.980;2022-12-07T14:42:16;3.00;99.90
17607;DHT22;8922;52.240;20.980;2022-12-07T14:44:43;3.00;99.90
17607;DHT22;8922;52.240;20.980;2022-12-07T14:47:10;3.00;99.90
17607;DHT22;8922;52.240;20.980;2022-12-07T14:49:37;2.90;99.90
17607;DHT22;8922;52.240;20.980;2022-12-07T14:52:05;2.80;99.90
17607;DHT22;8922;52.240;20.980;2022-12-07T14:54:34;2.90;99.90
17607;DHT22;8922;52.240;20.980;2022-12-07T14:57:01;2.80;99.90
17607;DHT22;8922;52.240;20.980;2022-12-07T14:59:27;2.80;99.90
17607;DHT22;8922;52.240;20.980;2022-12-07T15:01:55;2.80;99.90
17607;DHT22;8922;52.240;20.980;2022-12-07T15:04:22;2.80;99.90
17607;DHT22;8922;52.240;20.980;2022-12-07T15:06:56;2.70;99.90
17607;DHT22;8922;52.240;20.980;2022-12-07T15:09:23;2.70;99.90
17607;DHT22;8922;52.240;20.980;2022-12-07T15:11:52;2.70;99.90
17607;DHT22;8922;52.240;20.980;2022-12-07T15:14:18;2.70;99.90
17607;DHT22;8922;52.240;20.980;2022-12-07T15:16:45;2.70;99.90
17607;DHT22;8922;52.240;20.980;2022-12-07T15:19:13;2.60;99.90
17607;DHT22;8922;52.240;20.980;2022-12-07T15:21:41;2.60;99.90
17607;DHT22;8922;52.240;20.980;2022-12-07T15:24:09;2.60;99.90
17607;DHT22;8922;52.240;20.980;2022-12-07T15:26:37;2.90;99.90
17607;DHT22;8922;52.240;20.980;2022-12-07T15:29:06;2.60;99.90
17607;DHT22;8922;52.240;20.980;2022-12-07T15:31:34;2.60;99.90
17607;DHT22;8922;52.240;20.980;2022-12-07T15:34:02;2.60;99.90
17607;DHT22;8922;52.240;20.980;2022-12-07T15:36:40;2.60;99.90
17607;DHT22;8922;52.240;20.980;2022-12-07T15:39:07;2.60;99.90
17607;DHT22;8922;52.240;20.980;2022-12-07T15:41:35;2.60;99.90
17607;DHT22;8922;52.240;20.980;2022-12-07T15:44:01;2.60;99.90
17607;DHT22;8922;52.240;20.980;2022-12-07T15:46:48;2.60;99.90
17607;DHT22;8922;52.240;20.980;2022-12-07T15:49:16;2.60;99.90
17607;DHT22;8922;52.240;20.980;2022-12-07T15:51:44;2.60;99.90
17607;DHT22;8922;52.240;20.980;2022-12-07T15:54:13;2.50;99.90
17607;DHT22;8922;52.240;20.980;2022-12-07T15:59:09;2.50;99.90
17607;DHT22;8922;52.240;20.980;2022-12-07T16:04:05;2.60;99.90
17607;DHT22;8922;52.240;20.980;2022-12-07T16:06:33;2.60;99.90
17607;DHT22;8922;52.240;20.980;2022-12-07T16:09:01;2.60;99.90
17607;DHT22;8922;52.240;20.980;2022-12-07T16:11:28;2.60;99.90
17607;DHT22;8922;52.240;20.980;2022-12-07T16:13:55;2.60;99.90
17607;DHT22;8922;52.240;20.980;2022-12-07T16:16:22;2.70;99.90
17607;DHT22;8922;52.240;20.980;2022-12-07T16:18:49;2.60;99.90
17607;DHT22;8922;52.240;20.980;2022-12-07T16:21:21;2.60;99.90
17607;DHT22;8922;52.240;20.980;2022-12-07T16:23:48;2.70;99.90
17607;DHT22;8922;52.240;20.980;2022-12-07T16:26:20;2.80;99.90
17607;DHT22;8922;52.240;20.980;2022-12-07T16:28:49;2.80;99.90
17607;DHT22;8922;52.240;20.980;2022-12-07T16:31:20;2.80;99.90
17607;DHT22;8922;52.240;20.980;2022-12-07T16:33:48;2.80;99.90
17607;DHT22;8922;52.240;20.980;2022-12-07T16:36:15;2.80;99.90
17607;DHT22;8922;52.240;20.980;2022-12-07T16:38:44;2.80;99.90
17607;DHT22;8922;52.240;20.980;2022-12-07T16:41:11;2.80;99.90